sensor_id;sensor_type;location;lat;lon;timestamp;pressure;altitude;pressure_sealevel;temperature;humidity
42289;BME280;30230;47.520;19.016;2023-03-18T00:00:00;99527.34;;;2.68;56.19
42289;BME280;30230;47.520;19.016;2023-03-18T00:02:01;99523.16;;;2.66;57.41
42289;BME280;30230;47.520;19.016;2023-03-18T00:04:02;99519.75;;;2.64;56.31
42289;BME280;30230;47.520;19.016;2023-03-18T00:06:06;99527.50;;;2.67;54.77
42289;BME280;30230;47.520;19.016;2023-03-18T00:08:07;99515.97;;;2.66;55.08
42289;BME280;30230;47.520;19.016;2023-03-18T00:10:09;99502.53;;;2.58;54.62
42289;BME280;30230;47.520;19.016;2023-03-18T00:12:10;99522.00;;;2.68;55.05
42289;BME280;30230;47.520;19.016;2023-03-18T00:14:11;99518.06;;;2.72;55.01
42289;BME280;30230;47.520;19.016;2023-03-18T00:16:11;99516.66;;;2.68;57.02
42289;BME280;30230;47.520;19.016;2023-03-18T00:18:12;99509.09;;;2.64;56.08
42289;BME280;30230;47.520;19.016;2023-03-18T00:20:14;99503.13;;;2.52;56.53
42289;BME280;30230;47.520;19.016;2023-03-18T00:22:16;99506.50;;;2.54;55.88
42289;BME280;30230;47.520;19.016;2023-03-18T00:24:16;99507.19;;;2.56;55.98
42289;BME280;30230;47.520;19.016;2023-03-18T00:26:17;99510.84;;;2.55;56.71
42289;BME280;30230;47.520;19.016;2023-03-18T00:28:17;99495.03;;;2.44;56.26
42289;BME280;30230;47.520;19.016;2023-03-18T00:30:18;99508.44;;;2.52;56.52
42289;BME280;30230;47.520;19.016;2023-03-18T00:32:18;99512.75;;;2.63;56.17
42289;BME280;30230;47.520;19.016;2023-03-18T00:34:19;99500.44;;;2.52;57.17
42289;BME280;30230;47.520;19.016;2023-03-18T00:36:20;99504.78;;;2.53;55.13
42289;BME280;30230;47.520;19.016;2023-03-18T00:38:24;99499.38;;;2.45;54.59
42289;BME280;30230;47.520;19.016;2023-03-18T00:40:25;99500.38;;;2.44;54.79
42289;BME280;30230;47.520;19.016;2023-03-18T00:42:29;99506.94;;;2.49;58.16
42289;BME280;30230;47.520;19.016;2023-03-18T00:44:36;99503.84;;;2.54;56.56
42289;BME280;30230;47.520;19.016;2023-03-18T00:46:37;99505.94;;;2.50;55.66
42289;BME280;30230;47.520;19.016;2023-03-18T00:48:38;99495.84;;;2.54;56.11
42289;BME280;30230;47.520;19.016;2023-03-18T00:50:38;99489.00;;;2.42;55.69
42289;BME280;30230;47.520;19.016;2023-03-18T00:52:38;99505.38;;;2.47;56.91
42289;BME280;30230;47.520;19.016;2023-03-18T00:54:39;99487.59;;;2.38;55.17
42289;BME280;30230;47.520;19.016;2023-03-18T00:56:42;99481.59;;;2.35;57.42
42289;BME280;30230;47.520;19.016;2023-03-18T00:58:42;99503.31;;;2.41;56.78
42289;BME280;30230;47.520;19.016;2023-03-18T01:00:44;99492.81;;;2.39;56.08
42289;BME280;30230;47.520;19.016;2023-03-18T01:02:45;99491.41;;;2.35;56.88
42289;BME280;30230;47.520;19.016;2023-03-18T01:04:47;99487.59;;;2.38;55.92
42289;BME280;30230;47.520;19.016;2023-03-18T01:06:48;99484.94;;;2.38;55.27
42289;BME280;30230;47.520;19.016;2023-03-18T01:08:49;99476.84;;;2.29;54.81
42289;BME280;30230;47.520;19.016;2023-03-18T01:10:49;99479.75;;;2.36;55.72
42289;BME280;30230;47.520;19.016;2023-03-18T01:12:50;99490.41;;;2.36;56.83
42289;BME280;30230;47.520;19.016;2023-03-18T01:14:50;99469.13;;;2.26;56.23
42289;BME280;30230;47.520;19.016;2023-03-18T01:16:51;99448.13;;;2.14;55.99
42289;BME280;30230;47.520;19.016;2023-03-18T01:18:52;99472.06;;;2.33;56.94
42289;BME280;30230;47.520;19.016;2023-03-18T01:20:53;99473.75;;;2.34;56.60
42289;BME280;30230;47.520;19.016;2023-03-18T01:22:53;99471.50;;;2.29;55.97
42289;BME280;30230;47.520;19.016;2023-03-18T01:24:54;99472.38;;;2.20;54.63
42289;BME280;30230;47.520;19.016;2023-03-18T01:26:54;99465.34;;;2.29;55.04
42289;BME280;30230;47.520;19.016;2023-03-18T01:28:56;99468.59;;;2.23;55.29
42289;BME280;30230;47.520;19.016;2023-03-18T01:30:56;99463.09;;;2.24;54.36
42289;BME280;30230;47.520;19.016;2023-03-18T01:32:57;99456.78;;;2.25;54.65
42289;BME280;30230;47.520;19.016;2023-03-18T01:34:58;99456.63;;;2.27;55.31
42289;BME280;30230;47.520;19.016;2023-03-18T01:36:59;99448.94;;;2.24;55.93
42289;BME280;30230;47.520;19.016;2023-03-18T01:39:00;99450.75;;;2.33;56.26
42289;BME280;30230;47.520;19.016;2023-03-18T01:41:02;99442.47;;;2.26;55.92
42289;BME280;30230;47.520;19.016;2023-03-18T01:43:23;99422.91;;;2.08;57.22
42289;BME280;30230;47.520;19.016;2023-03-18T01:45:28;99453.72;;;2.20;57.36
42289;BME280;30230;47.520;19.016;2023-03-18T01:47:29;99441.66;;;2.16;56.36
42289;BME280;30230;47.520;19.016;2023-03-18T01:49:40;99449.81;;;2.15;56.30
42289;BME280;30230;47.520;19.016;2023-03-18T01:51:45;99442.84;;;2.04;56.69
42289;BME280;30230;47.520;19.016;2023-03-18T01:53:47;99441.00;;;2.04;56.54
42289;BME280;30230;47.520;19.016;2023-03-18T01:55:49;99447.56;;;2.10;57.94
42289;BME280;30230;47.520;19.016;2023-03-18T01:57:51;99444.75;;;2.12;56.52
42289;BME280;30230;47.520;19.016;2023-03-18T01:59:52;99449.84;;;2.05;56.04
42289;BME280;30230;47.520;19.016;2023-03-18T02:02:02;99431.50;;;2.02;55.03
42289;BME280;30230;47.520;19.016;2023-03-18T02:04:05;99445.06;;;2.08;55.97
42289;BME280;30230;47.520;19.016;2023-03-18T02:06:07;99444.81;;;2.02;56.85
42289;BME280;30230;47.520;19.016;2023-03-18T02:08:07;99440.03;;;1.96;56.18
42289;BME280;30230;47.520;19.016;2023-03-18T02:10:13;99439.22;;;1.95;55.23
42289;BME280;30230;47.520;19.016;2023-03-18T02:12:18;99449.16;;;2.03;53.81
42289;BME280;30230;47.520;19.016;2023-03-18T02:14:23;99436.25;;;2.08;54.89
42289;BME280;30230;47.520;19.016;2023-03-18T02:16:29;99439.56;;;2.20;54.84
42289;BME280;30230;47.520;19.016;2023-03-18T02:18:42;99420.06;;;2.19;54.93
42289;BME280;30230;47.520;19.016;2023-03-18T02:25:50;99436.09;;;2.09;55.26
42289;BME280;30230;47.520;19.016;2023-03-18T02:27:56;99433.00;;;2.04;54.59
42289;BME280;30230;47.520;19.016;2023-03-18T02:30:04;99437.78;;;2.01;55.27
42289;BME280;30230;47.520;19.016;2023-03-18T02:32:06;99430.53;;;1.93;56.31
42289;BME280;30230;47.520;19.016;2023-03-18T02:34:08;99424.53;;;1.81;56.24
42289;BME280;30230;47.520;19.016;2023-03-18T02:36:21;99448.50;;;1.81;56.20
42289;BME280;30230;47.520;19.016;2023-03-18T02:38:23;99434.34;;;1.81;56.08
42289;BME280;30230;47.520;19.016;2023-03-18T02:40:29;99440.13;;;1.76;56.03
42289;BME280;30230;47.520;19.016;2023-03-18T02:42:30;99445.56;;;1.75;57.03
42289;BME280;30230;47.520;19.016;2023-03-18T02:44:39;99438.97;;;1.69;55.89
42289;BME280;30230;47.520;19.016;2023-03-18T02:48:47;99445.56;;;1.65;55.72
42289;BME280;30230;47.520;19.016;2023-03-18T02:50:48;99444.88;;;1.63;56.03
42289;BME280;30230;47.520;19.016;2023-03-18T02:52:49;99446.56;;;1.64;58.29
42289;BME280;30230;47.520;19.016;2023-03-18T02:54:49;99441.53;;;1.61;56.26
42289;BME280;30230;47.520;19.016;2023-03-18T02:56:51;99455.81;;;1.60;55.84
42289;BME280;30230;47.520;19.016;2023-03-18T02:58:51;99441.53;;;1.51;58.83
42289;BME280;30230;47.520;19.016;2023-03-18T03:00:52;99437.47;;;1.57;58.71
42289;BME280;30230;47.520;19.016;2023-03-18T03:02:53;99447.81;;;1.60;57.62
42289;BME280;30230;47.520;19.016;2023-03-18T03:04:54;99434.09;;;1.55;57.64
42289;BME280;30230;47.520;19.016;2023-03-18T03:06:56;99446.97;;;1.60;57.81
42289;BME280;30230;47.520;19.016;2023-03-18T03:08:56;99446.44;;;1.66;57.57
42289;BME280;30230;47.520;19.016;2023-03-18T03:10:58;99447.53;;;1.63;58.71
42289;BME280;30230;47.520;19.016;2023-03-18T03:12:58;99445.44;;;1.67;59.12
42289;BME280;30230;47.520;19.016;2023-03-18T03:14:59;99443.78;;;1.56;57.98
42289;BME280;30230;47.520;19.016;2023-03-18T03:17:00;99437.91;;;1.43;58.74
42289;BME280;30230;47.520;19.016;2023-03-18T03:19:01;99450.63;;;1.49;58.82
42289;BME280;30230;47.520;19.016;2023-03-18T03:21:01;99450.63;;;1.39;58.97
42289;BME280;30230;47.520;19.016;2023-03-18T03:23:03;99447.00;;;1.21;58.96
42289;BME280;30230;47.520;19.016;2023-03-18T03:25:04;99450.22;;;1.15;58.25
42289;BME280;30230;47.520;19.016;2023-03-18T03:27:05;99449.94;;;1.08;58.69
42289;BME280;30230;47.520;19.016;2023-03-18T03:29:06;99447.28;;;1.08;58.63
42289;BME280;30230;47.520;19.016;2023-03-18T03:31:06;99458.47;;;1.12;58.27
42289;BME280;30230;47.520;19.016;2023-03-18T03:33:08;99457.47;;;1.03;58.33
42289;BME280;30230;47.520;19.016;2023-03-18T03:35:12;99461.69;;;1.06;57.86
42289;BME280;30230;47.520;19.016;2023-03-18T03:37:13;99457.06;;;0.98;58.98
42289;BME280;30230;47.520;19.016;2023-03-18T03:39:13;99468.00;;;1.04;59.27
42289;BME280;30230;47.520;19.016;2023-03-18T03:41:13;99468.00;;;1.04;58.38
42289;BME280;30230;47.520;19.016;2023-03-18T03:43:15;99469.28;;;1.10;59.88
42289;BME280;30230;47.520;19.016;2023-03-18T03:45:16;99473.59;;;1.11;58.75
42289;BME280;30230;47.520;19.016;2023-03-18T03:47:17;99468.53;;;1.08;59.03
42289;BME280;30230;47.520;19.016;2023-03-18T03:49:18;99472.19;;;1.07;58.96
42289;BME280;30230;47.520;19.016;2023-03-18T03:51:18;99471.63;;;1.13;57.66
42289;BME280;30230;47.520;19.016;2023-03-18T03:53:19;99470.94;;;1.11;59.54
42289;BME280;30230;47.520;19.016;2023-03-18T03:55:20;99463.38;;;1.07;59.16
42289;BME280;30230;47.520;19.016;2023-03-18T03:57:22;99464.50;;;1.04;59.37
42289;BME280;30230;47.520;19.016;2023-03-18T03:59:23;99468.00;;;1.04;58.34
42289;BME280;30230;47.520;19.016;2023-03-18T04:01:23;99472.06;;;0.99;58.48
42289;BME280;30230;47.520;19.016;2023-03-18T04:03:24;99468.56;;;0.98;59.17
42289;BME280;30230;47.520;19.016;2023-03-18T04:05:25;99472.75;;;1.01;59.83
42289;BME280;30230;47.520;19.016;2023-03-18T04:07:25;99466.75;;;0.99;59.48
42289;BME280;30230;47.520;19.016;2023-03-18T04:09:26;99457.47;;;0.84;59.48
42289;BME280;30230;47.520;19.016;2023-03-18T04:11:26;99474.56;;;0.91;58.57
42289;BME280;30230;47.520;19.016;2023-03-18T04:13:27;99477.47;;;0.88;61.22
42289;BME280;30230;47.520;19.016;2023-03-18T04:15:28;99474.81;;;0.88;60.60
42289;BME280;30230;47.520;19.016;2023-03-18T04:17:28;99471.59;;;0.84;60.03
42289;BME280;30230;47.520;19.016;2023-03-18T04:19:29;99466.13;;;0.76;61.11
42289;BME280;30230;47.520;19.016;2023-03-18T04:21:29;99482.34;;;0.83;59.99
42289;BME280;30230;47.520;19.016;2023-03-18T04:23:30;99457.69;;;0.61;59.64
42289;BME280;30230;47.520;19.016;2023-03-18T04:25:32;99488.91;;;0.69;60.08
42289;BME280;30230;47.520;19.016;2023-03-18T04:27:34;99464.81;;;0.61;59.11
42289;BME280;30230;47.520;19.016;2023-03-18T04:29:34;99484.03;;;0.74;58.61
42289;BME280;30230;47.520;19.016;2023-03-18T04:31:35;99486.53;;;0.75;60.86
42289;BME280;30230;47.520;19.016;2023-03-18T04:33:35;99455.16;;;0.60;59.96
42289;BME280;30230;47.520;19.016;2023-03-18T04:35:35;99474.25;;;0.74;59.73
42289;BME280;30230;47.520;19.016;2023-03-18T04:37:36;99478.00;;;0.72;59.21
42289;BME280;30230;47.520;19.016;2023-03-18T04:39:37;99486.28;;;0.78;58.84
42289;BME280;30230;47.520;19.016;2023-03-18T04:41:38;99480.97;;;0.78;61.55
42289;BME280;30230;47.520;19.016;2023-03-18T04:43:38;99472.81;;;0.70;59.64
42289;BME280;30230;47.520;19.016;2023-03-18T04:45:39;99482.22;;;0.74;59.14
42289;BME280;30230;47.520;19.016;2023-03-18T04:47:40;99489.50;;;0.72;60.88
42289;BME280;30230;47.520;19.016;2023-03-18T04:49:41;99489.50;;;0.72;61.80
42289;BME280;30230;47.520;19.016;2023-03-18T04:51:42;99494.66;;;0.74;60.69
42289;BME280;30230;47.520;19.016;2023-03-18T04:53:42;99498.03;;;0.76;60.31
42289;BME280;30230;47.520;19.016;2023-03-18T04:55:43;99501.50;;;0.76;61.04
42289;BME280;30230;47.520;19.016;2023-03-18T04:57:44;99499.41;;;0.70;62.00
42289;BME280;30230;47.520;19.016;2023-03-18T04:59:44;99493.00;;;0.73;61.99
42289;BME280;30230;47.520;19.016;2023-03-18T05:01:45;99493.84;;;0.73;61.43
42289;BME280;30230;47.520;19.016;2023-03-18T05:03:45;99502.69;;;0.84;60.61
42289;BME280;30230;47.520;19.016;2023-03-18T05:05:46;99492.16;;;0.82;59.70
42289;BME280;30230;47.520;19.016;2023-03-18T05:07:48;99503.53;;;0.94;59.94
42289;BME280;30230;47.520;19.016;2023-03-18T05:09:48;99504.81;;;1.19;58.55
42289;BME280;30230;47.520;19.016;2023-03-18T05:11:49;99507.06;;;1.14;58.26
42289;BME280;30230;47.520;19.016;2023-03-18T05:13:49;99500.91;;;1.13;58.05
42289;BME280;30230;47.520;19.016;2023-03-18T05:15:49;99490.56;;;1.10;57.09
42289;BME280;30230;47.520;19.016;2023-03-18T05:17:50;99512.81;;;1.28;57.71
42289;BME280;30230;47.520;19.016;2023-03-18T05:19:50;99510.03;;;1.30;56.80
42289;BME280;30230;47.520;19.016;2023-03-18T05:21:51;99509.19;;;1.49;56.09
42289;BME280;30230;47.520;19.016;2023-03-18T05:23:51;99503.88;;;1.49;56.52
42289;BME280;30230;47.520;19.016;2023-03-18T05:25:52;99506.69;;;1.47;57.41
42289;BME280;30230;47.520;19.016;2023-03-18T05:27:52;99505.16;;;1.45;56.93
42289;BME280;30230;47.520;19.016;2023-03-18T05:29:53;99495.88;;;1.49;56.67
42289;BME280;30230;47.520;19.016;2023-03-18T05:31:55;99509.06;;;1.70;55.98
42289;BME280;30230;47.520;19.016;2023-03-18T05:33:56;99509.34;;;1.67;56.75
42289;BME280;30230;47.520;19.016;2023-03-18T05:35:57;99507.38;;;1.69;56.43
42289;BME280;30230;47.520;19.016;2023-03-18T05:37:57;99513.53;;;1.89;54.66
42289;BME280;30230;47.520;19.016;2023-03-18T05:39:58;99511.84;;;1.97;54.64
42289;BME280;30230;47.520;19.016;2023-03-18T05:41:59;99523.88;;;2.01;54.58
42289;BME280;30230;47.520;19.016;2023-03-18T05:44:00;99520.69;;;1.98;55.72
42289;BME280;30230;47.520;19.016;2023-03-18T05:46:00;99521.53;;;1.89;55.53
42289;BME280;30230;47.520;19.016;2023-03-18T05:48:00;99521.78;;;1.95;55.99
42289;BME280;30230;47.520;19.016;2023-03-18T05:50:02;99530.09;;;1.92;55.16
42289;BME280;30230;47.520;19.016;2023-03-18T05:52:03;99530.34;;;1.89;55.28
42289;BME280;30230;47.520;19.016;2023-03-18T05:54:04;99522.66;;;1.86;56.10
42289;BME280;30230;47.520;19.016;2023-03-18T05:56:04;99530.63;;;1.96;55.78
42289;BME280;30230;47.520;19.016;2023-03-18T05:58:05;99523.91;;;1.92;56.77
42289;BME280;30230;47.520;19.016;2023-03-18T06:00:07;99513.25;;;1.92;57.12
42289;BME280;30230;47.520;19.016;2023-03-18T06:02:07;99530.91;;;2.02;57.34
42289;BME280;30230;47.520;19.016;2023-03-18T06:04:08;99530.44;;;2.17;56.98
42289;BME280;30230;47.520;19.016;2023-03-18T06:06:09;99526.94;;;2.16;56.94
42289;BME280;30230;47.520;19.016;2023-03-18T06:08:10;99534.38;;;2.22;56.94
42289;BME280;30230;47.520;19.016;2023-03-18T06:10:11;99529.06;;;2.22;57.16
42289;BME280;30230;47.520;19.016;2023-03-18T06:12:11;99534.75;;;2.27;56.25
42289;BME280;30230;47.520;19.016;2023-03-18T06:14:12;99530.41;;;2.26;57.11
42289;BME280;30230;47.520;19.016;2023-03-18T06:16:13;99516.81;;;2.29;57.39
42289;BME280;30230;47.520;19.016;2023-03-18T06:18:14;99517.91;;;2.37;58.14
42289;BME280;30230;47.520;19.016;2023-03-18T06:20:15;99541.44;;;2.51;58.13
42289;BME280;30230;47.520;19.016;2023-03-18T06:22:17;99531.91;;;2.48;57.16
42289;BME280;30230;47.520;19.016;2023-03-18T06:24:18;99533.56;;;2.59;56.23
42289;BME280;30230;47.520;19.016;2023-03-18T06:26:19;99540.25;;;2.63;56.38
42289;BME280;30230;47.520;19.016;2023-03-18T06:28:20;99539.97;;;2.66;55.85
42289;BME280;30230;47.520;19.016;2023-03-18T06:30:20;99531.59;;;2.61;55.79
42289;BME280;30230;47.520;19.016;2023-03-18T06:32:21;99541.38;;;2.70;56.17
42289;BME280;30230;47.520;19.016;2023-03-18T06:34:21;99539.97;;;2.66;57.23
42289;BME280;30230;47.520;19.016;2023-03-18T06:36:22;99546.72;;;2.70;57.80
42289;BME280;30230;47.520;19.016;2023-03-18T06:38:23;99538.41;;;2.73;57.10
42289;BME280;30230;47.520;19.016;2023-03-18T06:40:23;99538.41;;;2.73;56.57
42289;BME280;30230;47.520;19.016;2023-03-18T06:42:23;99556.75;;;2.86;56.63
42289;BME280;30230;47.520;19.016;2023-03-18T06:44:24;99549.59;;;2.86;56.18
42289;BME280;30230;47.520;19.016;2023-03-18T06:46:25;99556.06;;;3.11;55.05
42289;BME280;30230;47.520;19.016;2023-03-18T06:48:25;99556.00;;;3.21;54.27
42289;BME280;30230;47.520;19.016;2023-03-18T06:50:26;99558.53;;;3.23;54.04
42289;BME280;30230;47.520;19.016;2023-03-18T06:52:30;99562.25;;;3.30;53.56
42289;BME280;30230;47.520;19.016;2023-03-18T06:54:31;99559.59;;;3.30;54.55
42289;BME280;30230;47.520;19.016;2023-03-18T06:56:32;99561.53;;;3.37;53.91
42289;BME280;30230;47.520;19.016;2023-03-18T06:58:41;99561.41;;;3.57;53.15
42289;BME280;30230;47.520;19.016;2023-03-18T07:00:42;99567.81;;;3.64;53.28
42289;BME280;30230;47.520;19.016;2023-03-18T07:02:44;99568.88;;;3.71;53.41
42289;BME280;30230;47.520;19.016;2023-03-18T07:04:45;99569.34;;;3.84;53.74
42289;BME280;30230;47.520;19.016;2023-03-18T07:06:45;99563.38;;;3.90;53.52
42289;BME280;30230;47.520;19.016;2023-03-18T07:08:45;99560.09;;;3.97;52.24
42289;BME280;30230;47.520;19.016;2023-03-18T07:10:46;99575.59;;;4.11;52.19
42289;BME280;30230;47.520;19.016;2023-03-18T07:12:47;99568.00;;;4.24;52.35
42289;BME280;30230;47.520;19.016;2023-03-18T07:14:49;99558.09;;;4.42;50.51
42289;BME280;30230;47.520;19.016;2023-03-18T07:16:49;99557.44;;;4.40;50.79
42289;BME280;30230;47.520;19.016;2023-03-18T07:18:50;99555.50;;;4.51;50.14
42289;BME280;30230;47.520;19.016;2023-03-18T07:20:51;99561.50;;;4.53;50.71
42289;BME280;30230;47.520;19.016;2023-03-18T07:22:52;99570.56;;;4.60;49.75
42289;BME280;30230;47.520;19.016;2023-03-18T07:24:52;99554.22;;;4.63;49.07
42289;BME280;30230;47.520;19.016;2023-03-18T07:26:53;99564.78;;;4.99;49.06
42289;BME280;30230;47.520;19.016;2023-03-18T07:28:54;99564.31;;;5.11;48.38
42289;BME280;30230;47.520;19.016;2023-03-18T07:30:55;99563.75;;;5.34;47.84
42289;BME280;30230;47.520;19.016;2023-03-18T07:32:55;99567.03;;;5.86;47.27
42289;BME280;30230;47.520;19.016;2023-03-18T07:34:56;99565.06;;;6.13;46.28
42289;BME280;30230;47.520;19.016;2023-03-18T07:36:58;99564.34;;;6.35;46.24
42289;BME280;30230;47.520;19.016;2023-03-18T07:38:58;99561.97;;;6.73;44.62
42289;BME280;30230;47.520;19.016;2023-03-18T07:40:59;99547.59;;;7.05;43.06
42289;BME280;30230;47.520;19.016;2023-03-18T07:43:00;99561.84;;;7.05;44.00
42289;BME280;30230;47.520;19.016;2023-03-18T07:45:00;99566.00;;;7.16;43.77
42289;BME280;30230;47.520;19.016;2023-03-18T07:47:00;99555.88;;;7.35;43.78
42289;BME280;30230;47.520;19.016;2023-03-18T07:49:01;99562.91;;;7.36;43.51
42289;BME280;30230;47.520;19.016;2023-03-18T07:51:02;99576.47;;;7.42;43.96
42289;BME280;30230;47.520;19.016;2023-03-18T07:53:02;99565.69;;;7.50;42.25
42289;BME280;30230;47.520;19.016;2023-03-18T07:55:04;99563.53;;;7.46;42.79
42289;BME280;30230;47.520;19.016;2023-03-18T07:57:04;99576.66;;;7.41;43.06
42289;BME280;30230;47.520;19.016;2023-03-18T07:59:06;99573.38;;;7.22;43.11
42289;BME280;30230;47.520;19.016;2023-03-18T08:01:06;99569.72;;;7.07;44.89
42289;BME280;30230;47.520;19.016;2023-03-18T08:03:06;99578.63;;;7.08;44.98
42289;BME280;30230;47.520;19.016;2023-03-18T08:05:09;99575.63;;;7.02;43.64
42289;BME280;30230;47.520;19.016;2023-03-18T08:07:10;99576.03;;;6.83;45.23
42289;BME280;30230;47.520;19.016;2023-03-18T08:09:10;99584.88;;;7.00;45.75
42289;BME280;30230;47.520;19.016;2023-03-18T08:11:11;99578.19;;;7.35;45.11
42289;BME280;30230;47.520;19.016;2023-03-18T08:13:11;99576.22;;;7.60;44.38
42289;BME280;30230;47.520;19.016;2023-03-18T08:15:12;99572.47;;;7.92;43.72
42289;BME280;30230;47.520;19.016;2023-03-18T08:17:13;99568.50;;;8.26;42.50
42289;BME280;30230;47.520;19.016;2023-03-18T08:19:14;99570.25;;;8.42;41.50
42289;BME280;30230;47.520;19.016;2023-03-18T08:21:14;99574.34;;;8.52;41.22
42289;BME280;30230;47.520;19.016;2023-03-18T08:23:14;99568.63;;;8.70;40.59
42289;BME280;30230;47.520;19.016;2023-03-18T08:25:15;99558.91;;;8.84;40.24
42289;BME280;30230;47.520;19.016;2023-03-18T08:27:17;99558.16;;;8.90;40.26
42289;BME280;30230;47.520;19.016;2023-03-18T08:29:17;99565.38;;;9.04;39.47
42289;BME280;30230;47.520;19.016;2023-03-18T08:31:17;99575.50;;;9.32;40.12
42289;BME280;30230;47.520;19.016;2023-03-18T08:33:18;99570.19;;;9.24;40.38
42289;BME280;30230;47.520;19.016;2023-03-18T08:35:19;99562.47;;;9.35;38.52
42289;BME280;30230;47.520;19.016;2023-03-18T08:37:20;99564.59;;;9.40;39.73
42289;BME280;30230;47.520;19.016;2023-03-18T08:39:20;99565.59;;;9.54;38.40
42289;BME280;30230;47.520;19.016;2023-03-18T08:41:22;99565.59;;;9.54;38.68
42289;BME280;30230;47.520;19.016;2023-03-18T08:43:24;99563.06;;;9.67;38.83
42289;BME280;30230;47.520;19.016;2023-03-18T08:45:26;99561.53;;;9.79;38.09
42289;BME280;30230;47.520;19.016;2023-03-18T08:47:27;99560.56;;;9.87;38.27
42289;BME280;30230;47.520;19.016;2023-03-18T08:49:28;99543.47;;;9.80;37.72
42289;BME280;30230;47.520;19.016;2023-03-18T08:51:29;99546.63;;;10.05;37.41
42289;BME280;30230;47.520;19.016;2023-03-18T08:53:29;99535.94;;;10.18;37.74
42289;BME280;30230;47.520;19.016;2023-03-18T08:55:33;99557.47;;;10.54;36.87
42289;BME280;30230;47.520;19.016;2023-03-18T08:57:34;99540.28;;;10.62;37.11
42289;BME280;30230;47.520;19.016;2023-03-18T08:59:35;99552.03;;;10.76;36.11
42289;BME280;30230;47.520;19.016;2023-03-18T09:01:36;99542.28;;;10.81;35.90
42289;BME280;30230;47.520;19.016;2023-03-18T09:03:37;99557.22;;;10.77;36.46
42289;BME280;30230;47.520;19.016;2023-03-18T09:05:38;99553.88;;;10.75;36.95
42289;BME280;30230;47.520;19.016;2023-03-18T09:07:38;99556.66;;;10.88;35.96
42289;BME280;30230;47.520;19.016;2023-03-18T09:09:39;99557.59;;;10.74;35.46
42289;BME280;30230;47.520;19.016;2023-03-18T09:11:40;99551.59;;;10.79;35.14
42289;BME280;30230;47.520;19.016;2023-03-18T09:13:40;99558.00;;;10.71;35.71
42289;BME280;30230;47.520;19.016;2023-03-18T09:15:41;99549.69;;;10.73;35.07
42289;BME280;30230;47.520;19.016;2023-03-18T09:17:42;99533.13;;;10.82;36.62
42289;BME280;30230;47.520;19.016;2023-03-18T09:19:42;99531.59;;;11.01;34.50
42289;BME280;30230;47.520;19.016;2023-03-18T09:21:43;99542.00;;;11.04;35.64
42289;BME280;30230;47.520;19.016;2023-03-18T09:23:43;99538.31;;;11.18;35.37
42289;BME280;30230;47.520;19.016;2023-03-18T09:25:45;99539.19;;;11.26;36.34
42289;BME280;30230;47.520;19.016;2023-03-18T09:27:45;99530.09;;;11.46;36.30
42289;BME280;30230;47.520;19.016;2023-03-18T09:29:46;99543.91;;;11.58;35.29
42289;BME280;30230;47.520;19.016;2023-03-18T09:31:47;99535.19;;;11.69;35.03
42289;BME280;30230;47.520;19.016;2023-03-18T09:33:48;99533.38;;;11.96;35.54
42289;BME280;30230;47.520;19.016;2023-03-18T09:35:48;99535.69;;;11.99;34.06
42289;BME280;30230;47.520;19.016;2023-03-18T09:37:50;99532.34;;;12.04;35.01
42289;BME280;30230;47.520;19.016;2023-03-18T09:39:51;99535.69;;;12.06;34.58
42289;BME280;30230;47.520;19.016;2023-03-18T09:44:32;99532.34;;;11.97;34.66
42289;BME280;30230;47.520;19.016;2023-03-18T09:46:50;99532.13;;;11.86;34.17
42289;BME280;30230;47.520;19.016;2023-03-18T09:53:58;99529.03;;;12.48;33.25
42289;BME280;30230;47.520;19.016;2023-03-18T09:56:02;99525.28;;;12.56;34.63
42289;BME280;30230;47.520;19.016;2023-03-18T09:58:20;99526.09;;;12.70;33.19
42289;BME280;30230;47.520;19.016;2023-03-18T10:00:32;99519.81;;;12.83;33.46
42289;BME280;30230;47.520;19.016;2023-03-18T10:02:58;99525.63;;;12.93;35.64
42289;BME280;30230;47.520;19.016;2023-03-18T10:05:05;99521.38;;;13.17;33.99
42289;BME280;30230;47.520;19.016;2023-03-18T10:07:16;99516.59;;;13.25;33.93
42289;BME280;30230;47.520;19.016;2023-03-18T10:09:30;99515.22;;;13.48;36.57
42289;BME280;30230;47.520;19.016;2023-03-18T10:11:45;99515.94;;;13.75;35.33
42289;BME280;30230;47.520;19.016;2023-03-18T10:16:18;99521.91;;;13.84;32.37
42289;BME280;30230;47.520;19.016;2023-03-18T10:18:24;99509.69;;;13.68;30.86
42289;BME280;30230;47.520;19.016;2023-03-18T10:22:54;99512.81;;;13.71;32.99
42289;BME280;30230;47.520;19.016;2023-03-18T10:25:22;99507.94;;;13.80;32.31
42289;BME280;30230;47.520;19.016;2023-03-18T10:27:54;99505.66;;;13.77;32.73
42289;BME280;30230;47.520;19.016;2023-03-18T10:34:56;99507.34;;;14.34;30.84
42289;BME280;30230;47.520;19.016;2023-03-18T10:37:05;99508.81;;;14.30;31.21
42289;BME280;30230;47.520;19.016;2023-03-18T10:39:13;99507.16;;;14.29;32.38
42289;BME280;30230;47.520;19.016;2023-03-18T10:41:35;99489.47;;;14.20;32.22
42289;BME280;30230;47.520;19.016;2023-03-18T10:43:36;99494.34;;;14.37;31.39
42289;BME280;30230;47.520;19.016;2023-03-18T10:45:36;99503.34;;;14.62;30.86
42289;BME280;30230;47.520;19.016;2023-03-18T10:47:38;99492.50;;;14.80;30.69
42289;BME280;30230;47.520;19.016;2023-03-18T10:50:02;99494.69;;;14.90;29.44
42289;BME280;30230;47.520;19.016;2023-03-18T10:54:42;99489.91;;;15.04;29.52
42289;BME280;30230;47.520;19.016;2023-03-18T10:56:45;99468.53;;;15.26;28.71
42289;BME280;30230;47.520;19.016;2023-03-18T10:58:46;99485.28;;;15.41;27.55
42289;BME280;30230;47.520;19.016;2023-03-18T11:00:47;99479.59;;;15.61;29.79
42289;BME280;30230;47.520;19.016;2023-03-18T11:02:50;99480.34;;;15.68;28.65
42289;BME280;30230;47.520;19.016;2023-03-18T11:05:14;99463.06;;;15.74;27.68
42289;BME280;30230;47.520;19.016;2023-03-18T11:07:27;99464.38;;;15.72;27.62
42289;BME280;30230;47.520;19.016;2023-03-18T11:09:33;99470.03;;;15.70;28.07
42289;BME280;30230;47.520;19.016;2023-03-18T11:11:38;99478.94;;;15.77;29.29